sensor_id;sensor_type;location;lat;lon;timestamp;temperature;humidity
16198;DHT22;8206;51.440;6.914;2022-07-23T00:01:32;17.40;94.00
16198;DHT22;8206;51.440;6.914;2022-07-23T00:03:59;17.30;99.90
16198;DHT22;8206;51.440;6.914;2022-07-23T00:06:27;17.20;99.90
16198;DHT22;8206;51.440;6.914;2022-07-23T00:08:54;17.20;99.90
16198;DHT22;8206;51.440;6.914;2022-07-23T00:11:21;17.20;99.90
16198;DHT22;8206;51.440;6.914;2022-07-23T00:13:48;17.10;99.90
16198;DHT22;8206;51.440;6.914;2022-07-23T00:16:15;17.10;1.00
16198;DHT22;8206;51.440;6.914;2022-07-23T00:18:42;17.10;53.80
16198;DHT22;8206;51.440;6.914;2022-07-23T00:21:09;17.00;1.00
16198;DHT22;8206;51.440;6.914;2022-07-23T00:23:37;17.00;99.90
16198;DHT22;8206;51.440;6.914;2022-07-23T00:26:04;17.00;99.90
16198;DHT22;8206;51.440;6.914;2022-07-23T00:28:33;17.00;1.00
16198;DHT22;8206;51.440;6.914;2022-07-23T00:31:00;17.00;1.00
16198;DHT22;8206;51.440;6.914;2022-07-23T00:33:26;16.90;1.00
16198;DHT22;8206;51.440;6.914;2022-07-23T00:35:53;16.90;28.90
16198;DHT22;8206;51.440;6.914;2022-07-23T00:38:20;16.90;66.80
16198;DHT22;8206;51.440;6.914;2022-07-23T00:40:48;16.90;1.00
16198;DHT22;8206;51.440;6.914;2022-07-23T00:43:15;16.90;99.90
16198;DHT22;8206;51.440;6.914;2022-07-23T00:45:42;16.80;1.00
16198;DHT22;8206;51.440;6.914;2022-07-23T00:48:09;16.80;99.90
16198;DHT22;8206;51.440;6.914;2022-07-23T00:50:35;16.80;1.00
16198;DHT22;8206;51.440;6.914;2022-07-23T00:53:03;16.80;22.30
16198;DHT22;8206;51.440;6.914;2022-07-23T00:55:30;16.80;1.00
16198;DHT22;8206;51.440;6.914;2022-07-23T00:57:59;16.70;99.90
16198;DHT22;8206;51.440;6.914;2022-07-23T01:00:26;16.70;1.00
16198;DHT22;8206;51.440;6.914;2022-07-23T01:02:52;16.70;1.00
16198;DHT22;8206;51.440;6.914;2022-07-23T01:05:20;16.80;1.00
16198;DHT22;8206;51.440;6.914;2022-07-23T01:07:47;16.80;1.00
16198;DHT22;8206;51.440;6.914;2022-07-23T01:10:15;16.70;99.90
16198;DHT22;8206;51.440;6.914;2022-07-23T01:13:03;16.70;99.90
16198;DHT22;8206;51.440;6.914;2022-07-23T01:15:31;16.70;1.00
16198;DHT22;8206;51.440;6.914;2022-07-23T01:17:58;16.80;99.90
16198;DHT22;8206;51.440;6.914;2022-07-23T01:20:25;16.80;1.00
16198;DHT22;8206;51.440;6.914;2022-07-23T01:22:54;16.80;1.00
16198;DHT22;8206;51.440;6.914;2022-07-23T01:25:21;16.90;1.00
16198;DHT22;8206;51.440;6.914;2022-07-23T01:27:48;16.80;1.00
16198;DHT22;8206;51.440;6.914;2022-07-23T01:30:15;16.90;99.90
16198;DHT22;8206;51.440;6.914;2022-07-23T01:32:42;16.90;1.00
16198;DHT22;8206;51.440;6.914;2022-07-23T01:35:09;16.90;1.00
16198;DHT22;8206;51.440;6.914;2022-07-23T01:37:36;16.90;1.00
16198;DHT22;8206;51.440;6.914;2022-07-23T01:40:05;16.90;99.90
16198;DHT22;8206;51.440;6.914;2022-07-23T01:42:32;16.80;1.00
16198;DHT22;8206;51.440;6.914;2022-07-23T01:44:59;16.80;1.00
16198;DHT22;8206;51.440;6.914;2022-07-23T01:47:26;16.70;99.90
16198;DHT22;8206;51.440;6.914;2022-07-23T01:49:53;16.70;1.00
16198;DHT22;8206;51.440;6.914;2022-07-23T01:52:20;16.70;1.00
16198;DHT22;8206;51.440;6.914;2022-07-23T01:54:47;16.70;99.90
16198;DHT22;8206;51.440;6.914;2022-07-23T01:57:15;16.70;99.90
16198;DHT22;8206;51.440;6.914;2022-07-23T01:59:41;16.70;99.90
16198;DHT22;8206;51.440;6.914;2022-07-23T02:02:08;16.70;99.90
16198;DHT22;8206;51.440;6.914;2022-07-23T02:04:35;16.70;99.90
16198;DHT22;8206;51.440;6.914;2022-07-23T02:07:03;16.70;99.90
16198;DHT22;8206;51.440;6.914;2022-07-23T02:09:30;16.80;99.90
16198;DHT22;8206;51.440;6.914;2022-07-23T02:11:57;16.70;99.90
16198;DHT22;8206;51.440;6.914;2022-07-23T02:14:26;16.70;99.90
16198;DHT22;8206;51.440;6.914;2022-07-23T02:16:53;16.70;99.90
16198;DHT22;8206;51.440;6.914;2022-07-23T02:19:19;16.70;99.90
16198;DHT22;8206;51.440;6.914;2022-07-23T02:21:46;16.70;99.90
16198;DHT22;8206;51.440;6.914;2022-07-23T02:24:13;16.60;99.90
16198;DHT22;8206;51.440;6.914;2022-07-23T02:26:40;16.50;99.90
16198;DHT22;8206;51.440;6.914;2022-07-23T02:29:07;16.40;99.90
16198;DHT22;8206;51.440;6.914;2022-07-23T02:31:35;16.40;99.90
16198;DHT22;8206;51.440;6.914;2022-07-23T02:34:02;16.30;99.90
16198;DHT22;8206;51.440;6.914;2022-07-23T02:36:29;16.20;99.90
16198;DHT22;8206;51.440;6.914;2022-07-23T02:38:56;16.10;99.90
16198;DHT22;8206;51.440;6.914;2022-07-23T02:41:23;16.10;99.90
16198;DHT22;8206;51.440;6.914;2022-07-23T02:43:50;16.20;99.90
16198;DHT22;8206;51.440;6.914;2022-07-23T02:46:17;16.20;99.90
16198;DHT22;8206;51.440;6.914;2022-07-23T02:48:45;16.30;99.90
16198;DHT22;8206;51.440;6.914;2022-07-23T02:51:11;16.30;99.90
16198;DHT22;8206;51.440;6.914;2022-07-23T02:53:38;16.40;99.90
16198;DHT22;8206;51.440;6.914;2022-07-23T02:56:05;16.50;99.90
16198;DHT22;8206;51.440;6.914;2022-07-23T02:58:32;16.40;99.90
16198;DHT22;8206;51.440;6.914;2022-07-23T03:00:59;16.40;99.90
16198;DHT22;8206;51.440;6.914;2022-07-23T03:03:25;16.50;99.90
16198;DHT22;8206;51.440;6.914;2022-07-23T03:05:54;16.40;99.90
16198;DHT22;8206;51.440;6.914;2022-07-23T03:08:20;16.30;99.90
16198;DHT22;8206;51.440;6.914;2022-07-23T03:10:47;16.30;99.90
16198;DHT22;8206;51.440;6.914;2022-07-23T03:13:14;16.20;99.90
16198;DHT22;8206;51.440;6.914;2022-07-23T03:15:41;16.10;99.90
16198;DHT22;8206;51.440;6.914;2022-07-23T03:18:08;16.00;99.90
16198;DHT22;8206;51.440;6.914;2022-07-23T03:20:35;15.90;99.90
16198;DHT22;8206;51.440;6.914;2022-07-23T03:23:03;15.70;99.90
16198;DHT22;8206;51.440;6.914;2022-07-23T03:25:30;15.70;99.90
16198;DHT22;8206;51.440;6.914;2022-07-23T03:27:57;15.60;99.90
16198;DHT22;8206;51.440;6.914;2022-07-23T03:30:23;15.50;99.90
16198;DHT22;8206;51.440;6.914;2022-07-23T03:32:50;15.50;99.90
16198;DHT22;8206;51.440;6.914;2022-07-23T03:35:17;15.40;99.90
16198;DHT22;8206;51.440;6.914;2022-07-23T03:37:44;15.40;99.90
16198;DHT22;8206;51.440;6.914;2022-07-23T03:40:12;15.40;99.90
16198;DHT22;8206;51.440;6.914;2022-07-23T03:42:39;15.40;99.90
16198;DHT22;8206;51.440;6.914;2022-07-23T03:45:08;15.40;99.90
16198;DHT22;8206;51.440;6.914;2022-07-23T03:47:35;15.30;99.90
16198;DHT22;8206;51.440;6.914;2022-07-23T03:50:02;15.40;99.90
16198;DHT22;8206;51.440;6.914;2022-07-23T03:52:29;15.40;99.90
16198;DHT22;8206;51.440;6.914;2022-07-23T03:54:56;15.40;99.90
16198;DHT22;8206;51.440;6.914;2022-07-23T03:57:24;15.40;99.90
16198;DHT22;8206;51.440;6.914;2022-07-23T03:59:51;15.30;93.80
16198;DHT22;8206;51.440;6.914;2022-07-23T04:02:17;15.40;73.20
16198;DHT22;8206;51.440;6.914;2022-07-23T04:04:44;15.40;28.00
16198;DHT22;8206;51.440;6.914;2022-07-23T04:07:12;15.40;1.00
16198;DHT22;8206;51.440;6.914;2022-07-23T04:09:39;15.40;1.00
16198;DHT22;8206;51.440;6.914;2022-07-23T04:12:07;15.50;1.00
16198;DHT22;8206;51.440;6.914;2022-07-23T04:14:36;15.60;1.00
16198;DHT22;8206;51.440;6.914;2022-07-23T04:17:02;15.70;1.00
16198;DHT22;8206;51.440;6.914;2022-07-23T04:19:29;15.80;1.00
16198;DHT22;8206;51.440;6.914;2022-07-23T04:21:56;16.00;1.00
16198;DHT22;8206;51.440;6.914;2022-07-23T04:24:23;16.30;1.00
16198;DHT22;8206;51.440;6.914;2022-07-23T04:26:50;16.60;99.90
16198;DHT22;8206;51.440;6.914;2022-07-23T04:29:17;16.90;1.00
16198;DHT22;8206;51.440;6.914;2022-07-23T04:31:45;17.20;1.00
16198;DHT22;8206;51.440;6.914;2022-07-23T04:34:12;17.50;1.00
16198;DHT22;8206;51.440;6.914;2022-07-23T04:36:39;17.80;1.00
16198;DHT22;8206;51.440;6.914;2022-07-23T04:39:06;18.20;1.00
16198;DHT22;8206;51.440;6.914;2022-07-23T04:41:33;18.50;99.90
16198;DHT22;8206;51.440;6.914;2022-07-23T04:44:00;18.80;99.90
16198;DHT22;8206;51.440;6.914;2022-07-23T04:46:27;19.00;99.90
16198;DHT22;8206;51.440;6.914;2022-07-23T04:48:55;19.40;99.90
16198;DHT22;8206;51.440;6.914;2022-07-23T04:51:22;19.70;99.90
16198;DHT22;8206;51.440;6.914;2022-07-23T04:53:49;20.00;99.90
16198;DHT22;8206;51.440;6.914;2022-07-23T04:56:16;20.30;99.90
16198;DHT22;8206;51.440;6.914;2022-07-23T04:58:43;20.60;99.90
16198;DHT22;8206;51.440;6.914;2022-07-23T05:01:10;21.00;99.90
16198;DHT22;8206;51.440;6.914;2022-07-23T05:03:37;21.30;99.90
16198;DHT22;8206;51.440;6.914;2022-07-23T05:06:05;21.50;99.90
16198;DHT22;8206;51.440;6.914;2022-07-23T05:08:32;21.90;99.90
16198;DHT22;8206;51.440;6.914;2022-07-23T05:10:59;22.30;99.90
16198;DHT22;8206;51.440;6.914;2022-07-23T05:13:25;22.70;99.90
16198;DHT22;8206;51.440;6.914;2022-07-23T05:15:52;22.80;99.90
16198;DHT22;8206;51.440;6.914;2022-07-23T05:18:19;23.20;99.90
16198;DHT22;8206;51.440;6.914;2022-07-23T05:20:46;23.50;99.90
16198;DHT22;8206;51.440;6.914;2022-07-23T05:23:14;23.80;99.90
16198;DHT22;8206;51.440;6.914;2022-07-23T05:25:41;23.90;99.90
16198;DHT22;8206;51.440;6.914;2022-07-23T05:28:08;23.80;99.90
16198;DHT22;8206;51.440;6.914;2022-07-23T05:30:34;23.60;99.90
16198;DHT22;8206;51.440;6.914;2022-07-23T05:33:01;23.60;99.90
16198;DHT22;8206;51.440;6.914;2022-07-23T05:35:28;23.90;99.90
16198;DHT22;8206;51.440;6.914;2022-07-23T05:37:55;24.30;99.90
16198;DHT22;8206;51.440;6.914;2022-07-23T05:40:23;24.70;99.90
16198;DHT22;8206;51.440;6.914;2022-07-23T05:42:50;25.10;99.90
16198;DHT22;8206;51.440;6.914;2022-07-23T05:45:17;25.40;99.90
16198;DHT22;8206;51.440;6.914;2022-07-23T05:47:45;25.40;99.90
16198;DHT22;8206;51.440;6.914;2022-07-23T05:50:13;25.50;99.90
16198;DHT22;8206;51.440;6.914;2022-07-23T05:52:40;25.60;99.90
16198;DHT22;8206;51.440;6.914;2022-07-23T05:55:08;25.90;99.90
16198;DHT22;8206;51.440;6.914;2022-07-23T05:57:37;26.40;99.90
16198;DHT22;8206;51.440;6.914;2022-07-23T06:00:05;26.60;99.90
16198;DHT22;8206;51.440;6.914;2022-07-23T06:02:32;26.90;99.90
16198;DHT22;8206;51.440;6.914;2022-07-23T06:04:59;27.10;99.90
16198;DHT22;8206;51.440;6.914;2022-07-23T06:07:26;27.20;99.90
16198;DHT22;8206;51.440;6.914;2022-07-23T06:09:53;27.40;99.90
16198;DHT22;8206;51.440;6.914;2022-07-23T06:12:20;27.50;99.90
16198;DHT22;8206;51.440;6.914;2022-07-23T06:14:48;27.80;99.90
16198;DHT22;8206;51.440;6.914;2022-07-23T06:17:17;28.10;99.90
16198;DHT22;8206;51.440;6.914;2022-07-23T06:19:44;28.10;99.90
16198;DHT22;8206;51.440;6.914;2022-07-23T06:22:11;28.20;99.90
16198;DHT22;8206;51.440;6.914;2022-07-23T06:24:37;28.50;99.90
16198;DHT22;8206;51.440;6.914;2022-07-23T06:27:04;28.90;99.90
16198;DHT22;8206;51.440;6.914;2022-07-23T06:29:31;29.10;99.90
16198;DHT22;8206;51.440;6.914;2022-07-23T06:31:59;28.90;99.90
16198;DHT22;8206;51.440;6.914;2022-07-23T06:34:26;28.80;99.90
16198;DHT22;8206;51.440;6.914;2022-07-23T06:36:53;29.00;99.90
16198;DHT22;8206;51.440;6.914;2022-07-23T06:39:20;29.20;99.90
16198;DHT22;8206;51.440;6.914;2022-07-23T06:41:46;29.30;99.90
16198;DHT22;8206;51.440;6.914;2022-07-23T06:44:13;28.30;99.90
16198;DHT22;8206;51.440;6.914;2022-07-23T06:46:40;27.40;99.90
16198;DHT22;8206;51.440;6.914;2022-07-23T06:49:08;25.80;99.90
16198;DHT22;8206;51.440;6.914;2022-07-23T06:51:35;25.70;99.90
16198;DHT22;8206;51.440;6.914;2022-07-23T06:54:02;26.40;99.90
16198;DHT22;8206;51.440;6.914;2022-07-23T06:56:29;27.00;99.90
16198;DHT22;8206;51.440;6.914;2022-07-23T06:58:56;27.60;99.90
16198;DHT22;8206;51.440;6.914;2022-07-23T07:01:23;27.40;99.90
16198;DHT22;8206;51.440;6.914;2022-07-23T07:03:50;26.30;99.90
16198;DHT22;8206;51.440;6.914;2022-07-23T07:06:18;25.50;99.90
16198;DHT22;8206;51.440;6.914;2022-07-23T07:08:45;25.30;99.90
16198;DHT22;8206;51.440;6.914;2022-07-23T07:11:12;24.40;99.90
16198;DHT22;8206;51.440;6.914;2022-07-23T07:13:39;24.10;99.90
16198;DHT22;8206;51.440;6.914;2022-07-23T07:16:06;24.30;99.90
16198;DHT22;8206;51.440;6.914;2022-07-23T07:18:32;24.60;99.90
16198;DHT22;8206;51.440;6.914;2022-07-23T07:20:59;24.80;99.90
16198;DHT22;8206;51.440;6.914;2022-07-23T07:23:27;24.80;99.90
16198;DHT22;8206;51.440;6.914;2022-07-23T07:25:54;24.80;99.90
16198;DHT22;8206;51.440;6.914;2022-07-23T07:28:21;24.60;99.90
16198;DHT22;8206;51.440;6.914;2022-07-23T07:30:48;24.50;99.90
16198;DHT22;8206;51.440;6.914;2022-07-23T07:33:15;24.30;99.90
16198;DHT22;8206;51.440;6.914;2022-07-23T07:35:42;24.30;99.90
16198;DHT22;8206;51.440;6.914;2022-07-23T07:38:08;24.00;99.90
16198;DHT22;8206;51.440;6.914;2022-07-23T07:40:37;23.30;99.90
16198;DHT22;8206;51.440;6.914;2022-07-23T07:43:03;23.30;99.90
16198;DHT22;8206;51.440;6.914;2022-07-23T07:45:30;23.00;99.90
16198;DHT22;8206;51.440;6.914;2022-07-23T07:47:57;22.70;99.90
16198;DHT22;8206;51.440;6.914;2022-07-23T07:50:24;22.60;99.90
16198;DHT22;8206;51.440;6.914;2022-07-23T07:52:51;22.80;99.90
16198;DHT22;8206;51.440;6.914;2022-07-23T07:55:18;22.70;99.90
16198;DHT22;8206;51.440;6.914;2022-07-23T07:57:46;22.60;99.90
16198;DHT22;8206;51.440;6.914;2022-07-23T08:00:13;22.60;99.90
16198;DHT22;8206;51.440;6.914;2022-07-23T08:02:42;22.60;99.90
16198;DHT22;8206;51.440;6.914;2022-07-23T08:05:09;22.40;99.90
16198;DHT22;8206;51.440;6.914;2022-07-23T08:07:36;22.50;99.90
16198;DHT22;8206;51.440;6.914;2022-07-23T08:10:06;22.50;99.90
16198;DHT22;8206;51.440;6.914;2022-07-23T08:12:41;22.50;99.90
16198;DHT22;8206;51.440;6.914;2022-07-23T08:15:12;22.50;99.90
16198;DHT22;8206;51.440;6.914;2022-07-23T08:17:39;22.40;99.90
16198;DHT22;8206;51.440;6.914;2022-07-23T08:20:07;22.20;99.90
16198;DHT22;8206;51.440;6.914;2022-07-23T08:22:44;22.00;99.90
16198;DHT22;8206;51.440;6.914;2022-07-23T08:25:11;21.60;99.90
16198;DHT22;8206;51.440;6.914;2022-07-23T08:27:38;21.30;99.90
16198;DHT22;8206;51.440;6.914;2022-07-23T08:30:06;21.20;99.90
16198;DHT22;8206;51.440;6.914;2022-07-23T08:32:47;21.20;99.90
16198;DHT22;8206;51.440;6.914;2022-07-23T08:35:15;21.40;99.90
16198;DHT22;8206;51.440;6.914;2022-07-23T08:37:41;21.50;99.90
16198;DHT22;8206;51.440;6.914;2022-07-23T08:40:10;21.60;99.90
16198;DHT22;8206;51.440;6.914;2022-07-23T08:42:38;21.40;99.90
16198;DHT22;8206;51.440;6.914;2022-07-23T08:45:07;21.50;99.90
16198;DHT22;8206;51.440;6.914;2022-07-23T08:47:37;21.80;99.90
16198;DHT22;8206;51.440;6.914;2022-07-23T08:50:05;22.00;99.90
16198;DHT22;8206;51.440;6.914;2022-07-23T08:52:34;22.20;99.90
16198;DHT22;8206;51.440;6.914;2022-07-23T08:55:02;22.20;99.90
16198;DHT22;8206;51.440;6.914;2022-07-23T08:57:29;22.20;99.90
16198;DHT22;8206;51.440;6.914;2022-07-23T08:59:56;22.30;99.90
16198;DHT22;8206;51.440;6.914;2022-07-23T09:02:23;22.20;99.90
16198;DHT22;8206;51.440;6.914;2022-07-23T09:04:51;22.20;99.90
16198;DHT22;8206;51.440;6.914;2022-07-23T09:07:18;22.20;99.90
16198;DHT22;8206;51.440;6.914;2022-07-23T09:09:45;22.50;99.90
16198;DHT22;8206;51.440;6.914;2022-07-23T09:12:12;22.60;99.90
16198;DHT22;8206;51.440;6.914;2022-07-23T09:14:41;22.70;99.90
16198;DHT22;8206;51.440;6.914;2022-07-23T09:17:10;22.70;99.90
16198;DHT22;8206;51.440;6.914;2022-07-23T09:19:36;22.80;99.90
16198;DHT22;8206;51.440;6.914;2022-07-23T09:22:24;22.90;99.90
16198;DHT22;8206;51.440;6.914;2022-07-23T09:25:07;22.90;99.90
16198;DHT22;8206;51.440;6.914;2022-07-23T09:27:49;22.80;99.90
16198;DHT22;8206;51.440;6.914;2022-07-23T09:30:18;22.70;99.90
16198;DHT22;8206;51.440;6.914;2022-07-23T09:33:03;22.70;99.90
16198;DHT22;8206;51.440;6.914;2022-07-23T09:35:44;22.90;99.90
16198;DHT22;8206;51.440;6.914;2022-07-23T09:38:12;22.90;99.90
16198;DHT22;8206;51.440;6.914;2022-07-23T09:40:39;23.20;99.90
16198;DHT22;8206;51.440;6.914;2022-07-23T09:43:06;23.20;99.90
16198;DHT22;8206;51.440;6.914;2022-07-23T09:45:33;23.10;99.90
16198;DHT22;8206;51.440;6.914;2022-07-23T09:48:11;23.10;99.90
16198;DHT22;8206;51.440;6.914;2022-07-23T09:50:38;23.30;99.90
16198;DHT22;8206;51.440;6.914;2022-07-23T09:53:05;23.40;99.90
16198;DHT22;8206;51.440;6.914;2022-07-23T09:55:35;23.50;99.90
16198;DHT22;8206;51.440;6.914;2022-07-23T09:58:05;23.50;99.90
16198;DHT22;8206;51.440;6.914;2022-07-23T10:00:35;23.20;99.90
16198;DHT22;8206;51.440;6.914;2022-07-23T10:03:04;23.20;99.90
16198;DHT22;8206;51.440;6.914;2022-07-23T10:05:33;23.20;99.90
16198;DHT22;8206;51.440;6.914;2022-07-23T10:08:01;23.40;99.90
16198;DHT22;8206;51.440;6.914;2022-07-23T10:10:29;23.40;99.90
16198;DHT22;8206;51.440;6.914;2022-07-23T10:12:59;23.40;99.90
16198;DHT22;8206;51.440;6.914;2022-07-23T10:15:43;23.50;99.90
16198;DHT22;8206;51.440;6.914;2022-07-23T10:18:11;23.60;99.90
16198;DHT22;8206;51.440;6.914;2022-07-23T10:20:38;23.50;99.90
16198;DHT22;8206;51.440;6.914;2022-07-23T10:23:15;23.40;99.90
16198;DHT22;8206;51.440;6.914;2022-07-23T10:25:49;23.40;99.90
16198;DHT22;8206;51.440;6.914;2022-07-23T10:28:46;23.40;99.90
16198;DHT22;8206;51.440;6.914;2022-07-23T10:31:28;23.30;99.90
16198;DHT22;8206;51.440;6.914;2022-07-23T10:34:06;23.50;99.90
16198;DHT22;8206;51.440;6.914;2022-07-23T10:36:41;23.60;99.90
16198;DHT22;8206;51.440;6.914;2022-07-23T10:39:14;23.70;99.90
16198;DHT22;8206;51.440;6.914;2022-07-23T10:41:43;23.70;99.90
16198;DHT22;8206;51.440;6.914;2022-07-23T10:44:13;23.90;99.90
16198;DHT22;8206;51.440;6.914;2022-07-23T10:46:57;24.00;99.90
16198;DHT22;8206;51.440;6.914;2022-07-23T10:49:35;24.00;99.90
16198;DHT22;8206;51.440;6.914;2022-07-23T10:52:22;23.90;99.90
16198;DHT22;8206;51.440;6.914;2022-07-23T10:54:51;24.10;99.90
16198;DHT22;8206;51.440;6.914;2022-07-23T10:57:18;24.20;99.90
16198;DHT22;8206;51.440;6.914;2022-07-23T11:00:16;24.20;99.90
16198;DHT22;8206;51.440;6.914;2022-07-23T11:02:45;24.20;99.90
16198;DHT22;8206;51.440;6.914;2022-07-23T11:05:13;24.20;99.90
16198;DHT22;8206;51.440;6.914;2022-07-23T11:10:50;24.20;99.90
16198;DHT22;8206;51.440;6.914;2022-07-23T11:13:26;24.10;99.90
16198;DHT22;8206;51.440;6.914;2022-07-23T11:16:13;24.30;99.90
16198;DHT22;8206;51.440;6.914;2022-07-23T11:18:59;24.60;99.90
16198;DHT22;8206;51.440;6.914;2022-07-23T11:21:46;24.60;99.90
16198;DHT22;8206;51.440;6.914;2022-07-23T11:24:19;24.40;99.90
16198;DHT22;8206;51.440;6.914;2022-07-23T11:26:59;24.20;99.90
16198;DHT22;8206;51.440;6.914;2022-07-23T11:29:45;24.20;99.90
16198;DHT22;8206;51.440;6.914;2022-07-23T11:32:38;24.00;99.90
16198;DHT22;8206;51.440;6.914;2022-07-23T11:35:25;24.20;99.90
16198;DHT22;8206;51.440;6.914;2022-07-23T11:37:54;24.20;99.90
16198;DHT22;8206;51.440;6.914;2022-07-23T11:40:25;24.30;99.90
16198;DHT22;8206;51.440;6.914;2022-07-23T11:42:55;24.40;99.90
16198;DHT22;8206;51.440;6.914;2022-07-23T11:45:22;24.70;99.90
16198;DHT22;8206;51.440;6.914;2022-07-23T11:47:51;24.50;99.90
16198;DHT22;8206;51.440;6.914;2022-07-23T11:50:18;24.40;99.90
16198;DHT22;8206;51.440;6.914;2022-07-23T11:52:44;24.30;99.90
16198;DHT22;8206;51.440;6.914;2022-07-23T11:55:12;24.30;99.90
16198;DHT22;8206;51.440;6.914;2022-07-23T11:57:42;24.50;99.90
16198;DHT22;8206;51.440;6.914;2022-07-23T12:00:11;24.60;99.90
16198;DHT22;8206;51.440;6.914;2022-07-23T12:02:39;24.80;99.90
16198;DHT22;8206;51.440;6.914;2022-07-23T12:05:07;24.70;99.90
16198;DHT22;8206;51.440;6.914;2022-07-23T12:07:38;24.60;99.90
16198;DHT22;8206;51.440;6.914;2022-07-23T12:10:15;24.70;99.90
16198;DHT22;8206;51.440;6.914;2022-07-23T12:12:43;24.80;99.90
16198;DHT22;8206;51.440;6.914;2022-07-23T12:15:11;25.00;99.90
16198;DHT22;8206;51.440;6.914;2022-07-23T12:17:40;25.00;99.90
16198;DHT22;8206;51.440;6.914;2022-07-23T12:20:12;25.20;99.90
16198;DHT22;8206;51.440;6.914;2022-07-23T12:22:41;25.30;99.90
16198;DHT22;8206;51.440;6.914;2022-07-23T12:25:10;25.30;99.90
16198;DHT22;8206;51.440;6.914;2022-07-23T12:27:37;25.20;99.90
16198;DHT22;8206;51.440;6.914;2022-07-23T12:30:22;24.80;99.90
16198;DHT22;8206;51.440;6.914;2022-07-23T12:32:51;24.70;99.90
16198;DHT22;8206;51.440;6.914;2022-07-23T12:35:20;24.60;99.90
16198;DHT22;8206;51.440;6.914;2022-07-23T12:37:49;24.80;99.90
16198;DHT22;8206;51.440;6.914;2022-07-23T12:40:28;24.60;99.90
16198;DHT22;8206;51.440;6.914;2022-07-23T12:42:57;24.40;99.90
16198;DHT22;8206;51.440;6.914;2022-07-23T12:45:25;24.50;99.90
16198;DHT22;8206;51.440;6.914;2022-07-23T12:48:01;24.70;99.90
16198;DHT22;8206;51.440;6.914;2022-07-23T12:50:44;24.80;99.90
16198;DHT22;8206;51.440;6.914;2022-07-23T12:53:16;24.90;99.90
16198;DHT22;8206;51.440;6.914;2022-07-23T12:55:46;25.00;99.90
16198;DHT22;8206;51.440;6.914;2022-07-23T12:58:15;25.00;99.90
16198;DHT22;8206;51.440;6.914;2022-07-23T13:00:58;24.80;99.90
16198;DHT22;8206;51.440;6.914;2022-07-23T13:03:27;24.50;99.90
16198;DHT22;8206;51.440;6.914;2022-07-23T13:05:57;24.40;99.90
16198;DHT22;8206;51.440;6.914;2022-07-23T13:08:26;24.50;99.90
16198;DHT22;8206;51.440;6.914;2022-07-23T13:10:54;24.80;99.90
16198;DHT22;8206;51.440;6.914;2022-07-23T13:13:22;25.00;99.90
16198;DHT22;8206;51.440;6.914;2022-07-23T13:15:49;25.30;99.90
16198;DHT22;8206;51.440;6.914;2022-07-23T13:18:16;25.50;99.90
16198;DHT22;8206;51.440;6.914;2022-07-23T13:20:43;25.60;99.90
16198;DHT22;8206;51.440;6.914;2022-07-23T13:23:12;25.60;99.90
16198;DHT22;8206;51.440;6.914;2022-07-23T13:25:40;25.60;99.90
16198;DHT22;8206;51.440;6.914;2022-07-23T13:28:07;25.80;99.90
16198;DHT22;8206;51.440;6.914;2022-07-23T13:30:34;25.80;99.90
16198;DHT22;8206;51.440;6.914;2022-07-23T13:33:01;25.90;99.90
16198;DHT22;8206;51.440;6.914;2022-07-23T13:35:28;25.80;99.90
16198;DHT22;8206;51.440;6.914;2022-07-23T13:37:55;25.80;99.90
16198;DHT22;8206;51.440;6.914;2022-07-23T13:40:23;25.70;99.90
16198;DHT22;8206;51.440;6.914;2022-07-23T13:42:50;25.80;99.90
16198;DHT22;8206;51.440;6.914;2022-07-23T13:45:17;25.90;99.90
16198;DHT22;8206;51.440;6.914;2022-07-23T13:47:44;26.10;99.90
16198;DHT22;8206;51.440;6.914;2022-07-23T13:50:10;25.90;99.90
16198;DHT22;8206;51.440;6.914;2022-07-23T13:52:38;25.90;99.90
16198;DHT22;8206;51.440;6.914;2022-07-23T13:55:06;25.70;99.90
16198;DHT22;8206;51.440;6.914;2022-07-23T13:57:34;25.70;99.90
16198;DHT22;8206;51.440;6.914;2022-07-23T14:00:03;25.80;99.90
16198;DHT22;8206;51.440;6.914;2022-07-23T14:02:30;25.90;99.90
16198;DHT22;8206;51.440;6.914;2022-07-23T14:04:57;26.10;99.90
16198;DHT22;8206;51.440;6.914;2022-07-23T14:07:24;26.00;99.90
16198;DHT22;8206;51.440;6.914;2022-07-23T14:09:51;26.00;99.90
16198;DHT22;8206;51.440;6.914;2022-07-23T14:12:17;26.00;99.90
16198;DHT22;8206;51.440;6.914;2022-07-23T14:14:46;26.30;99.90
16198;DHT22;8206;51.440;6.914;2022-07-23T14:17:13;26.40;99.90
16198;DHT22;8206;51.440;6.914;2022-07-23T14:19:40;26.50;99.90
16198;DHT22;8206;51.440;6.914;2022-07-23T14:22:06;26.70;99.90
16198;DHT22;8206;51.440;6.914;2022-07-23T14:24:33;26.90;99.90
16198;DHT22;8206;51.440;6.914;2022-07-23T14:27:00;27.00;99.90
16198;DHT22;8206;51.440;6.914;2022-07-23T14:29:28;27.10;99.90
16198;DHT22;8206;51.440;6.914;2022-07-23T14:31:57;27.10;99.90
16198;DHT22;8206;51.440;6.914;2022-07-23T14:34:24;27.10;99.90
16198;DHT22;8206;51.440;6.914;2022-07-23T14:36:51;27.10;99.90
16198;DHT22;8206;51.440;6.914;2022-07-23T14:39:18;26.90;99.90
16198;DHT22;8206;51.440;6.914;2022-07-23T14:41:45;26.90;99.90
16198;DHT22;8206;51.440;6.914;2022-07-23T14:44:11;26.80;99.90
16198;DHT22;8206;51.440;6.914;2022-07-23T14:46:38;26.70;99.90
16198;DHT22;8206;51.440;6.914;2022-07-23T14:49:07;26.90;99.90
16198;DHT22;8206;51.440;6.914;2022-07-23T14:51:33;27.00;99.90
16198;DHT22;8206;51.440;6.914;2022-07-23T14:54:02;27.00;99.90
16198;DHT22;8206;51.440;6.914;2022-07-23T14:56:28;27.00;99.90
16198;DHT22;8206;51.440;6.914;2022-07-23T14:58:55;27.00;99.90
16198;DHT22;8206;51.440;6.914;2022-07-23T15:01:22;26.70;99.90
16198;DHT22;8206;51.440;6.914;2022-07-23T15:03:49;26.50;99.90
16198;DHT22;8206;51.440;6.914;2022-07-23T15:06:17;26.20;99.90
16198;DHT22;8206;51.440;6.914;2022-07-23T15:08:44;26.30;99.90
16198;DHT22;8206;51.440;6.914;2022-07-23T15:11:11;26.50;99.90
16198;DHT22;8206;51.440;6.914;2022-07-23T15:13:38;26.60;99.90
16198;DHT22;8206;51.440;6.914;2022-07-23T15:16:06;26.60;99.90
16198;DHT22;8206;51.440;6.914;2022-07-23T15:18:33;26.50;99.90
16198;DHT22;8206;51.440;6.914;2022-07-23T15:21:01;26.30;99.90
16198;DHT22;8206;51.440;6.914;2022-07-23T15:23:29;26.20;99.90
16198;DHT22;8206;51.440;6.914;2022-07-23T15:25:56;26.10;99.90
16198;DHT22;8206;51.440;6.914;2022-07-23T15:28:23;26.20;99.90
16198;DHT22;8206;51.440;6.914;2022-07-23T15:30:50;26.50;99.90
16198;DHT22;8206;51.440;6.914;2022-07-23T15:33:18;26.50;99.90
16198;DHT22;8206;51.440;6.914;2022-07-23T15:35:44;26.40;99.90
16198;DHT22;8206;51.440;6.914;2022-07-23T15:38:11;26.50;99.90
16198;DHT22;8206;51.440;6.914;2022-07-23T15:40:41;26.40;99.90
16198;DHT22;8206;51.440;6.914;2022-07-23T15:43:07;26.50;99.90
16198;DHT22;8206;51.440;6.914;2022-07-23T15:45:34;26.50;99.90
16198;DHT22;8206;51.440;6.914;2022-07-23T15:48:02;26.60;99.90
16198;DHT22;8206;51.440;6.914;2022-07-23T15:50:28;26.70;99.90
16198;DHT22;8206;51.440;6.914;2022-07-23T15:52:55;26.80;99.90
16198;DHT22;8206;51.440;6.914;2022-07-23T15:55:22;26.70;99.90
16198;DHT22;8206;51.440;6.914;2022-07-23T15:57:50;26.80;99.90
16198;DHT22;8206;51.440;6.914;2022-07-23T16:00:17;26.70;99.90